Time;durP1;ratioP1;P1;durP2;ratioP2;P2;SDS_P1;SDS_P2;PMS_P1;PMS_P2;Temp;Humidity;BMP_temperature;BMP_pressure;BME280_temperature;BME280_humidity;BME280_pressure;Samples;Min_cycle;Max_cycle;Signal;HPM_P1;HPM_P2
2022/03/09 00:02:01;;;;;;;17.92;10.43;;;3.50;99.90;;;;;;5017241;28;20113;-70
2022/03/09 00:04:26;;;;;;;15.68;10.85;;;3.50;99.90;;;;;;5016533;28;20037;-70
2022/03/09 00:06:52;;;;;;;17.77;10.38;;;3.50;99.90;;;;;;5016522;28;20041;-71
2022/03/09 00:09:18;;;;;;;21.05;10.68;;;3.50;99.90;;;;;;5017163;28;20034;-70
2022/03/09 00:11:44;;;;;;;15.55;10.10;;;3.50;99.90;;;;;;5000045;28;20033;-69
2022/03/09 00:14:10;;;;;;;13.52;9.43;;;3.60;99.90;;;;;;5017058;28;20022;-69
2022/03/09 00:16:36;;;;;;;16.13;9.43;;;3.60;99.90;;;;;;5016745;28;20029;-69
2022/03/09 00:19:01;;;;;;;14.52;9.73;;;3.60;99.90;;;;;;5016250;28;20286;-69
2022/03/09 00:21:27;;;;;;;16.52;9.50;;;3.60;99.90;;;;;;5017032;28;20034;-69
2022/03/09 00:23:53;;;;;;;14.45;9.57;;;3.60;99.90;;;;;;5000089;28;20052;-68
2022/03/09 00:26:19;;;;;;;15.68;9.20;;;3.60;99.90;;;;;;5002874;28;20103;-69
2022/03/09 00:28:46;;;;;;;14.05;9.18;;;3.60;99.90;;;;;;5020325;28;20406;-70
2022/03/09 00:31:12;;;;;;;15.43;9.52;;;3.70;99.90;;;;;;5020327;28;20038;-69
2022/03/09 00:33:39;;;;;;;13.25;8.77;;;3.70;99.90;;;;;;5020390;28;20345;-69
2022/03/09 00:36:05;;;;;;;14.15;8.95;;;3.80;99.90;;;;;;5021576;28;20033;-69
2022/03/09 00:38:31;;;;;;;14.00;8.38;;;3.80;99.90;;;;;;5020858;28;20365;-69
2022/03/09 00:40:56;;;;;;;14.57;8.70;;;3.80;99.90;;;;;;5020097;28;20448;-70
2022/03/09 00:43:23;;;;;;;12.15;8.63;;;3.70;99.90;;;;;;5019729;28;20057;-70
2022/03/09 00:45:49;;;;;;;14.88;9.00;;;3.70;99.90;;;;;;5019968;28;20030;-69
2022/03/09 00:48:15;;;;;;;13.25;8.27;;;3.70;99.90;;;;;;5020977;28;20349;-69
2022/03/09 00:50:41;;;;;;;12.85;8.48;;;3.70;99.90;;;;;;5020362;28;20050;-70
2022/03/09 00:53:07;;;;;;;13.88;8.75;;;3.70;99.90;;;;;;5020540;28;20034;-69
2022/03/09 00:55:33;;;;;;;13.75;8.57;;;3.70;99.90;;;;;;5020640;28;20048;-69
2022/03/09 00:57:59;;;;;;;12.93;9.30;;;3.70;99.90;;;;;;5019816;28;20389;-69
2022/03/09 01:00:24;;;;;;;12.38;8.57;;;3.70;99.90;;;;;;5019768;28;20113;-69
2022/03/09 01:02:50;;;;;;;13.38;8.30;;;3.60;99.90;;;;;;5003430;28;20461;-70
2022/03/09 01:05:16;;;;;;;12.93;8.95;;;3.60;99.90;;;;;;5019677;28;20037;-69
2022/03/09 01:07:42;;;;;;;14.50;9.65;;;3.60;99.90;;;;;;5020356;28;20044;-70
2022/03/09 01:10:09;;;;;;;14.90;8.82;;;3.70;99.90;;;;;;5019503;28;20108;-70
2022/03/09 01:12:35;;;;;;;13.55;9.23;;;3.60;99.90;;;;;;5020309;28;20385;-70
2022/03/09 01:15:01;;;;;;;13.75;9.57;;;3.60;99.90;;;;;;5019452;28;20117;-70
2022/03/09 01:17:27;;;;;;;15.10;9.40;;;3.50;99.90;;;;;;5020625;28;20075;-70
2022/03/09 01:19:53;;;;;;;15.80;9.77;;;3.40;99.90;;;;;;5020104;28;20065;-70
2022/03/09 01:22:19;;;;;;;14.93;9.02;;;3.50;99.90;;;;;;5020061;28;20294;-71
2022/03/09 01:24:45;;;;;;;13.40;9.40;;;3.40;99.90;;;;;;5019486;28;20034;-70
2022/03/09 01:27:11;;;;;;;14.85;8.88;;;3.40;99.90;;;;;;5019302;28;20036;-69
2022/03/09 01:29:37;;;;;;;14.52;9.00;;;3.30;99.90;;;;;;5019170;28;20041;-69
2022/03/09 01:32:03;;;;;;;15.40;9.23;;;3.30;99.90;;;;;;5019791;28;20029;-70
2022/03/09 01:34:29;;;;;;;17.02;8.82;;;3.30;99.90;;;;;;5018991;28;20026;-69
2022/03/09 01:36:55;;;;;;;14.52;9.15;;;3.20;99.90;;;;;;5019467;28;20037;-69
2022/03/09 01:39:22;;;;;;;14.65;9.52;;;3.20;99.90;;;;;;5002864;28;20030;-70
2022/03/09 01:41:48;;;;;;;13.30;8.45;;;3.10;99.90;;;;;;5018824;28;20137;-69
2022/03/09 01:44:19;;;;;;;14.23;8.77;;;3.10;99.90;;;;;;5035401;28;20128;-68
2022/03/09 01:46:49;;;;;;;15.48;9.60;;;3.10;99.90;;;;;;5019706;28;20052;-69
2022/03/09 01:49:16;;;;;;;13.52;8.48;;;3.10;99.90;;;;;;5018881;28;20033;-70
2022/03/09 01:51:45;;;;;;;13.70;8.68;;;3.00;99.90;;;;;;5019763;28;20034;-69
2022/03/09 01:54:12;;;;;;;13.95;8.85;;;3.10;99.90;;;;;;5018676;28;20121;-70
2022/03/09 01:56:38;;;;;;;11.75;8.88;;;2.90;99.90;;;;;;5018735;28;20037;-69
2022/03/09 01:59:06;;;;;;;14.50;9.10;;;2.90;99.90;;;;;;5018666;28;20037;-69
2022/03/09 02:01:32;;;;;;;14.25;8.88;;;3.00;99.90;;;;;;5019352;28;20184;-68
2022/03/09 02:03:59;;;;;;;15.02;9.13;;;3.00;99.90;;;;;;4986062;28;20409;-69
2022/03/09 02:06:25;;;;;;;13.82;8.95;;;3.00;99.90;;;;;;5019304;28;20038;-69
2022/03/09 02:11:38;;;;;;;13.55;8.77;;;3.00;99.90;;;;;;5019697;28;20057;-69
2022/03/09 02:14:04;;;;;;;12.75;8.45;;;3.00;99.90;;;;;;5019103;28;20026;-69
2022/03/09 02:16:30;;;;;;;13.60;8.48;;;3.00;99.90;;;;;;5018624;28;20417;-69
2022/03/09 02:19:00;;;;;;;14.82;8.77;;;3.00;99.90;;;;;;5018357;28;20057;-69
2022/03/09 02:21:27;;;;;;;13.77;9.15;;;3.00;99.90;;;;;;5018970;28;20275;-68
2022/03/09 02:23:55;;;;;;;14.48;9.13;;;3.10;99.90;;;;;;5018961;28;20420;-69
2022/03/09 02:26:21;;;;;;;16.60;8.73;;;3.00;99.90;;;;;;5018909;28;20081;-69
2022/03/09 02:28:48;;;;;;;12.13;8.35;;;3.10;99.90;;;;;;5018790;28;20118;-69
2022/03/09 02:31:14;;;;;;;11.77;7.85;;;3.10;99.90;;;;;;5018018;28;20033;-68
2022/03/09 02:33:45;;;;;;;16.13;8.70;;;3.10;99.90;;;;;;5018020;28;20030;-68
2022/03/09 02:36:11;;;;;;;14.48;9.27;;;3.10;99.90;;;;;;5017973;28;20038;-68
2022/03/09 02:38:37;;;;;;;11.70;8.15;;;3.10;99.90;;;;;;5001698;28;20049;-69
2022/03/09 02:41:02;;;;;;;14.23;9.00;;;3.20;99.90;;;;;;5017962;28;20304;-69
2022/03/09 02:43:28;;;;;;;14.30;8.90;;;3.20;99.90;;;;;;5018384;28;20057;-69
2022/03/09 02:45:54;;;;;;;14.18;8.85;;;3.10;99.90;;;;;;5018535;28;20124;-70
2022/03/09 02:48:20;;;;;;;14.60;8.93;;;3.10;99.90;;;;;;5017179;28;20309;-69
2022/03/09 02:50:46;;;;;;;13.25;9.13;;;3.00;99.90;;;;;;5001319;28;20310;-69
2022/03/09 02:53:11;;;;;;;16.23;9.65;;;2.90;99.90;;;;;;5018571;28;20049;-69
2022/03/09 02:55:39;;;;;;;13.82;9.30;;;2.90;99.90;;;;;;5018344;28;20067;-70
2022/03/09 02:58:04;;;;;;;16.08;9.52;;;2.90;99.90;;;;;;5018424;28;20164;-69
2022/03/09 03:00:30;;;;;;;14.43;9.00;;;2.90;99.90;;;;;;5017547;28;20128;-69
2022/03/09 03:02:56;;;;;;;16.65;9.40;;;2.80;99.90;;;;;;5017879;28;20038;-69
2022/03/09 03:05:22;;;;;;;16.33;9.43;;;2.70;99.90;;;;;;5018216;28;20401;-69
2022/03/09 03:07:48;;;;;;;13.05;8.52;;;2.70;99.90;;;;;;5017417;28;20038;-69
2022/03/09 03:10:13;;;;;;;13.98;8.82;;;2.70;99.90;;;;;;5001016;28;20045;-69
2022/03/09 03:12:39;;;;;;;12.75;8.43;;;2.60;99.90;;;;;;5017372;28;20419;-70
2022/03/09 03:15:06;;;;;;;15.55;8.95;;;2.70;99.90;;;;;;5017997;28;20093;-70
2022/03/09 03:17:36;;;;;;;11.73;8.77;;;2.70;99.90;;;;;;5017911;28;20041;-69
2022/03/09 03:20:03;;;;;;;12.63;8.25;;;2.70;99.90;;;;;;5017495;28;20297;-70
2022/03/09 03:22:29;;;;;;;14.95;8.68;;;2.70;99.90;;;;;;5017071;28;20036;-70
2022/03/09 03:24:55;;;;;;;14.68;9.18;;;2.70;99.90;;;;;;5001025;28;20112;-70
2022/03/09 03:27:21;;;;;;;13.38;8.30;;;2.70;99.90;;;;;;5017065;28;20298;-70
2022/03/09 03:29:47;;;;;;;12.30;8.38;;;2.70;99.90;;;;;;5017308;28;20046;-70
2022/03/09 03:32:13;;;;;;;14.43;7.60;;;2.80;99.90;;;;;;5000449;28;20117;-70
2022/03/09 03:34:38;;;;;;;15.90;8.98;;;2.80;99.90;;;;;;5017622;28;20018;-70
2022/03/09 03:37:05;;;;;;;11.63;7.82;;;2.80;99.90;;;;;;5016926;28;20038;-71
2022/03/09 03:39:31;;;;;;;12.73;8.45;;;2.80;99.90;;;;;;5016790;28;20053;-70
2022/03/09 03:41:56;;;;;;;13.73;8.45;;;2.80;99.90;;;;;;5016727;28;20444;-69
2022/03/09 03:44:22;;;;;;;12.55;8.82;;;2.80;99.90;;;;;;5017501;28;20045;-70
2022/03/09 03:46:48;;;;;;;14.52;8.50;;;2.80;99.90;;;;;;5017466;28;20050;-70
2022/03/09 03:49:14;;;;;;;14.15;8.75;;;2.80;99.90;;;;;;5016747;28;20026;-70
2022/03/09 03:51:39;;;;;;;11.75;8.02;;;2.80;99.90;;;;;;5017212;28;20129;-70
2022/03/09 03:54:05;;;;;;;12.77;8.50;;;2.80;99.90;;;;;;5016635;28;20049;-71
2022/03/09 03:56:31;;;;;;;13.27;8.27;;;2.80;99.90;;;;;;5017309;28;20030;-70
2022/03/09 03:58:57;;;;;;;12.23;8.18;;;2.70;99.90;;;;;;5016360;28;20287;-70
2022/03/09 04:01:23;;;;;;;12.43;7.97;;;2.80;99.90;;;;;;5016015;28;20057;-70
2022/03/09 04:03:48;;;;;;;13.38;8.52;;;2.80;99.90;;;;;;5000305;28;20038;-70
2022/03/09 04:06:14;;;;;;;14.80;8.55;;;2.80;99.90;;;;;;5017085;28;20033;-71
2022/03/09 04:08:41;;;;;;;15.40;9.00;;;2.80;99.90;;;;;;5017125;28;20075;-70
2022/03/09 04:11:07;;;;;;;13.45;8.63;;;2.80;99.90;;;;;;5017085;28;20041;-70
2022/03/09 04:13:33;;;;;;;14.80;8.98;;;2.80;99.90;;;;;;5016434;28;20026;-70
2022/03/09 04:15:59;;;;;;;12.23;8.80;;;2.70;99.90;;;;;;5017098;28;20094;-69
2022/03/09 04:18:25;;;;;;;15.82;8.85;;;2.80;99.90;;;;;;5016385;28;20453;-69
2022/03/09 04:20:50;;;;;;;13.20;8.50;;;2.80;99.90;;;;;;5017108;28;20029;-69
2022/03/09 04:23:16;;;;;;;14.48;9.00;;;2.70;99.90;;;;;;5016363;28;20033;-69
2022/03/09 04:25:42;;;;;;;13.40;8.45;;;2.80;99.90;;;;;;5000012;28;20042;-70
2022/03/09 04:28:08;;;;;;;14.13;8.40;;;2.80;99.90;;;;;;5016243;28;20469;-69
2022/03/09 04:30:34;;;;;;;15.52;8.93;;;2.80;99.90;;;;;;5016947;28;20271;-69
2022/03/09 04:32:59;;;;;;;13.60;8.63;;;2.80;99.90;;;;;;5016985;28;20088;-69
2022/03/09 04:35:25;;;;;;;13.35;8.15;;;2.90;99.90;;;;;;4999976;28;20275;-68
2022/03/09 04:37:51;;;;;;;12.90;8.02;;;2.80;99.90;;;;;;4999807;28;20026;-69
2022/03/09 04:40:17;;;;;;;13.15;8.40;;;2.80;99.90;;;;;;5016112;28;20029;-68
2022/03/09 04:42:43;;;;;;;13.77;8.00;;;2.80;99.90;;;;;;5016344;28;20057;-69
2022/03/09 04:45:10;;;;;;;14.50;8.60;;;2.80;99.90;;;;;;5017053;28;20030;-69
2022/03/09 04:47:36;;;;;;;13.60;8.13;;;2.80;99.90;;;;;;5017201;28;20041;-68
2022/03/09 04:50:02;;;;;;;13.40;8.18;;;2.90;99.90;;;;;;5016210;28;20386;-69
2022/03/09 04:52:28;;;;;;;14.15;8.80;;;2.80;99.90;;;;;;5016683;28;20042;-69
2022/03/09 04:54:54;;;;;;;14.05;8.50;;;2.80;99.90;;;;;;5016838;28;20049;-68
2022/03/09 04:57:20;;;;;;;12.80;8.35;;;2.80;99.90;;;;;;4999678;28;20026;-68
2022/03/09 04:59:46;;;;;;;12.35;8.45;;;2.80;99.90;;;;;;5016852;28;20039;-69
2022/03/09 05:02:12;;;;;;;13.73;8.57;;;2.80;99.90;;;;;;5016674;28;20030;-71
2022/03/09 05:04:38;;;;;;;12.23;8.23;;;2.70;99.90;;;;;;5016746;28;20030;-69
2022/03/09 05:07:04;;;;;;;14.27;9.23;;;2.70;99.90;;;;;;5015821;28;20030;-69
2022/03/09 05:09:30;;;;;;;13.70;8.60;;;2.60;99.90;;;;;;4999587;28;20109;-68
2022/03/09 05:11:56;;;;;;;13.43;8.88;;;2.60;99.90;;;;;;5018528;28;20345;-68
2022/03/09 05:14:22;;;;;;;13.93;8.75;;;2.60;99.90;;;;;;5019486;28;20030;-68
2022/03/09 05:16:48;;;;;;;13.63;8.38;;;2.50;99.90;;;;;;5019456;28;20060;-69
2022/03/09 05:19:14;;;;;;;17.17;9.55;;;2.50;99.90;;;;;;5020099;28;20141;-69
2022/03/09 05:21:39;;;;;;;14.00;9.00;;;2.40;99.90;;;;;;5019347;28;20038;-69
2022/03/09 05:24:05;;;;;;;18.35;9.55;;;2.30;99.90;;;;;;5019260;28;20042;-68
2022/03/09 05:26:32;;;;;;;15.05;8.90;;;2.30;99.90;;;;;;5052215;28;20038;-69
2022/03/09 05:28:58;;;;;;;14.27;9.52;;;2.30;99.90;;;;;;5020002;28;20448;-70
2022/03/09 05:31:24;;;;;;;14.50;8.95;;;2.30;99.90;;;;;;5019024;28;20129;-70
2022/03/09 05:33:50;;;;;;;15.55;9.40;;;2.20;99.90;;;;;;5019803;28;20038;-70
2022/03/09 05:36:16;;;;;;;15.23;9.50;;;2.30;99.90;;;;;;5019054;28;20046;-69
2022/03/09 05:38:42;;;;;;;16.60;9.80;;;2.20;99.90;;;;;;5019703;28;20072;-70
2022/03/09 05:41:08;;;;;;;18.25;9.70;;;2.20;99.90;;;;;;5019694;28;20048;-69
2022/03/09 05:43:34;;;;;;;17.08;9.45;;;2.20;99.90;;;;;;5018808;28;20061;-69
2022/03/09 05:46:00;;;;;;;19.60;9.57;;;2.20;99.90;;;;;;5019649;28;20037;-69
2022/03/09 05:48:26;;;;;;;16.10;9.85;;;2.10;99.90;;;;;;5019047;28;20034;-69
2022/03/09 05:50:52;;;;;;;17.67;10.02;;;2.10;99.90;;;;;;5019451;28;20044;-69
2022/03/09 05:53:18;;;;;;;17.55;10.73;;;2.10;99.90;;;;;;5019033;28;20029;-70
2022/03/09 05:55:44;;;;;;;16.67;9.55;;;2.00;99.90;;;;;;5019395;28;20417;-70
2022/03/09 05:58:09;;;;;;;21.35;10.77;;;2.00;99.90;;;;;;5019322;28;20052;-70
2022/03/09 06:00:35;;;;;;;17.00;9.60;;;1.90;99.90;;;;;;5019260;28;20042;-71
2022/03/09 06:03:01;;;;;;;17.52;10.13;;;1.90;99.90;;;;;;5018912;28;20064;-70
2022/03/09 06:05:27;;;;;;;17.23;10.45;;;1.90;99.90;;;;;;5018489;28;20077;-70
2022/03/09 06:07:53;;;;;;;16.40;9.75;;;1.90;99.90;;;;;;5019187;28;20091;-70
2022/03/09 06:10:19;;;;;;;16.50;9.90;;;1.90;99.90;;;;;;5018219;28;20030;-69
2022/03/09 06:12:45;;;;;;;20.52;9.90;;;1.80;99.90;;;;;;5018806;28;20099;-69
2022/03/09 06:15:11;;;;;;;15.73;9.02;;;1.70;99.90;;;;;;5002185;28;20092;-70
2022/03/09 06:17:48;;;;;;;14.55;9.25;;;1.80;99.90;;;;;;5019083;28;20022;-69
2022/03/09 06:20:19;;;;;;;18.23;10.25;;;1.70;99.90;;;;;;5019112;28;20037;-70
2022/03/09 06:22:45;;;;;;;14.25;9.00;;;1.80;99.90;;;;;;5017621;28;20034;-69
2022/03/09 06:25:14;;;;;;;16.02;9.57;;;1.90;99.90;;;;;;5019142;28;20306;-69
2022/03/09 06:27:52;;;;;;;18.23;9.57;;;1.90;99.90;;;;;;5019141;28;20045;-70
2022/03/09 06:30:20;;;;;;;17.02;9.77;;;1.90;99.90;;;;;;5018942;28;20045;-70
2022/03/09 06:32:47;;;;;;;15.52;9.93;;;1.90;99.90;;;;;;5018707;28;20021;-70
2022/03/09 06:35:14;;;;;;;15.95;9.65;;;2.00;99.90;;;;;;5018661;28;20033;-70
2022/03/09 06:37:40;;;;;;;14.63;9.13;;;1.90;99.90;;;;;;5018536;28;20065;-69
2022/03/09 06:40:08;;;;;;;14.30;9.45;;;1.80;99.90;;;;;;5001672;28;20476;-69
2022/03/09 06:42:34;;;;;;;17.73;9.95;;;1.80;99.90;;;;;;5018332;28;20390;-69
2022/03/09 06:45:00;;;;;;;17.38;9.93;;;1.80;99.90;;;;;;5018444;28;20084;-69
2022/03/09 06:47:26;;;;;;;18.08;9.82;;;1.80;99.90;;;;;;5017701;28;20026;-69
2022/03/09 06:49:52;;;;;;;15.70;9.50;;;1.90;99.90;;;;;;5017604;28;20034;-70
2022/03/09 06:52:18;;;;;;;16.58;9.23;;;1.90;99.90;;;;;;5017593;28;20428;-69
2022/03/09 06:54:44;;;;;;;16.67;9.65;;;2.00;99.90;;;;;;5017551;28;20025;-70
2022/03/09 06:57:10;;;;;;;20.25;10.50;;;2.10;99.90;;;;;;5017462;28;20425;-69
2022/03/09 06:59:37;;;;;;;17.52;10.73;;;2.10;99.90;;;;;;5017565;28;20025;-68
2022/03/09 07:02:04;;;;;;;18.35;12.13;;;2.20;99.90;;;;;;4985053;28;20464;-69
2022/03/09 07:04:30;;;;;;;19.00;11.70;;;2.40;99.90;;;;;;5018288;28;20050;-67
2022/03/09 07:06:56;;;;;;;21.80;11.80;;;2.40;99.90;;;;;;5017795;28;20188;-69
2022/03/09 07:09:22;;;;;;;17.27;10.32;;;2.40;99.90;;;;;;5017459;28;20410;-68
2022/03/09 07:11:48;;;;;;;18.42;10.07;;;2.50;99.90;;;;;;5017333;28;20129;-69
2022/03/09 07:14:13;;;;;;;17.50;10.75;;;2.50;99.90;;;;;;5017887;28;20033;-67
2022/03/09 07:16:39;;;;;;;16.65;10.27;;;2.60;99.90;;;;;;5018011;28;20026;-68
2022/03/09 07:19:05;;;;;;;21.25;11.10;;;2.60;99.90;;;;;;5001071;28;20306;-69
2022/03/09 07:21:31;;;;;;;19.80;11.68;;;2.70;99.90;;;;;;5017990;28;20349;-68
2022/03/09 07:23:58;;;;;;;20.42;11.43;;;2.80;99.90;;;;;;5017204;28;20068;-69
2022/03/09 07:26:24;;;;;;;12.90;7.70;;;3.00;99.90;;;;;;5000975;28;20069;-69
2022/03/09 07:28:50;;;;;;;18.77;11.52;;;4.10;99.90;;;;;;5017064;28;20068;-69
2022/03/09 07:31:16;;;;;;;23.08;11.80;;;4.00;99.90;;;;;;5016949;28;20030;-69
2022/03/09 07:33:42;;;;;;;18.58;11.30;;;3.90;99.90;;;;;;5016775;28;20042;-69
2022/03/09 07:36:09;;;;;;;20.35;10.57;;;3.80;99.90;;;;;;5016926;28;20030;-70
2022/03/09 07:38:38;;;;;;;19.38;10.68;;;3.80;99.90;;;;;;5017593;28;20030;-69
2022/03/09 07:41:04;;;;;;;16.25;9.32;;;3.90;99.90;;;;;;5016942;28;20045;-70
2022/03/09 07:43:30;;;;;;;17.25;10.63;;;5.10;99.90;;;;;;5017216;28;20147;-70
2022/03/09 07:45:56;;;;;;;13.20;9.07;;;5.20;99.90;;;;;;5017444;28;20072;-69
2022/03/09 07:48:22;;;;;;;14.00;9.15;;;5.00;99.90;;;;;;5016784;28;20041;-69
2022/03/09 07:50:47;;;;;;;17.10;9.55;;;4.90;99.90;;;;;;5017094;28;20128;-70
2022/03/09 07:53:13;;;;;;;14.65;9.05;;;4.90;99.90;;;;;;5016454;28;20279;-70
2022/03/09 07:55:39;;;;;;;17.20;9.13;;;4.90;99.90;;;;;;5016963;28;20057;-69
2022/03/09 07:58:05;;;;;;;15.52;9.38;;;5.00;99.90;;;;;;5000012;28;20030;-69
2022/03/09 08:00:31;;;;;;;21.95;9.60;;;5.00;99.90;;;;;;5016923;28;20069;-69
2022/03/09 08:02:57;;;;;;;13.90;9.15;;;5.10;99.90;;;;;;5016684;28;20034;-69
2022/03/09 08:05:22;;;;;;;16.55;9.30;;;5.10;99.90;;;;;;5017067;28;20026;-69
2022/03/09 08:07:48;;;;;;;19.55;9.77;;;5.10;99.90;;;;;;5016244;28;20042;-69
2022/03/09 08:10:16;;;;;;;17.45;9.82;;;5.20;99.90;;;;;;5017064;28;20338;-68
2022/03/09 08:12:42;;;;;;;16.48;10.00;;;5.30;99.90;;;;;;5016751;28;20058;-69
2022/03/09 08:15:08;;;;;;;16.67;9.70;;;5.40;99.90;;;;;;5000043;28;20113;-69
2022/03/09 08:17:34;;;;;;;17.48;9.57;;;5.50;99.90;;;;;;5017039;28;20030;-69
2022/03/09 08:20:00;;;;;;;15.13;9.80;;;5.50;99.90;;;;;;5016923;28;20022;-68
2022/03/09 08:22:26;;;;;;;18.33;9.73;;;5.60;99.90;;;;;;5016918;28;20040;-69
2022/03/09 08:24:52;;;;;;;14.88;9.35;;;5.70;99.90;;;;;;5000704;28;20034;-69
2022/03/09 08:27:18;;;;;;;17.60;10.40;;;5.80;99.90;;;;;;5017314;28;20169;-68
2022/03/09 08:29:43;;;;;;;18.10;9.85;;;6.00;99.90;;;;;;5016992;28;20026;-68
2022/03/09 08:32:10;;;;;;;20.13;11.45;;;5.90;99.90;;;;;;5016073;28;20041;-69
2022/03/09 08:34:36;;;;;;;17.48;10.55;;;6.00;99.90;;;;;;5016920;28;20302;-69
2022/03/09 08:37:03;;;;;;;18.25;10.55;;;6.00;99.90;;;;;;5016149;28;20305;-66
2022/03/09 08:39:30;;;;;;;17.75;10.45;;;6.10;99.90;;;;;;5016850;28;20045;-68
2022/03/09 08:41:57;;;;;;;20.42;10.88;;;6.20;99.90;;;;;;5016129;28;20177;-67
2022/03/09 08:44:24;;;;;;;19.85;10.88;;;6.30;99.90;;;;;;5016209;28;20124;-69
2022/03/09 08:46:53;;;;;;;19.75;11.40;;;6.40;99.90;;;;;;5018124;28;20030;-65
2022/03/09 08:49:19;;;;;;;16.77;10.45;;;6.40;99.90;;;;;;5020721;28;20309;-69
2022/03/09 08:51:45;;;;;;;17.45;10.57;;;6.50;99.90;;;;;;5020615;28;20038;-65
2022/03/09 08:54:12;;;;;;;20.83;11.27;;;6.50;99.90;;;;;;5020660;28;20037;-67
2022/03/09 08:56:39;;;;;;;18.05;10.63;;;6.50;99.90;;;;;;5019874;28;20041;-67
2022/03/09 08:59:05;;;;;;;20.02;11.05;;;6.50;99.90;;;;;;5019844;28;20440;-67
2022/03/09 09:01:31;;;;;;;17.08;10.50;;;6.60;99.90;;;;;;5020498;28;20357;-66
2022/03/09 09:03:56;;;;;;;18.65;9.63;;;6.70;99.90;;;;;;5020525;28;20030;-67
2022/03/09 09:06:22;;;;;;;20.20;11.25;;;6.80;99.90;;;;;;5019651;28;20030;-70
2022/03/09 09:08:48;;;;;;;16.05;10.63;;;6.90;99.90;;;;;;5019678;28;20050;-70
2022/03/09 09:11:16;;;;;;;19.98;11.07;;;6.90;99.90;;;;;;5003620;28;20076;-68
2022/03/09 09:13:41;;;;;;;19.35;11.07;;;7.00;99.90;;;;;;5019532;28;20049;-68
2022/03/09 09:16:07;;;;;;;20.73;11.60;;;7.20;99.90;;;;;;5019615;28;20044;-69
2022/03/09 09:18:33;;;;;;;19.35;11.48;;;7.30;99.90;;;;;;5036089;28;20034;-68
2022/03/09 09:20:59;;;;;;;20.23;11.82;;;7.30;99.90;;;;;;4986762;28;20034;-67
2022/03/09 09:23:24;;;;;;;16.42;11.30;;;7.40;99.90;;;;;;5019377;28;20030;-66
2022/03/09 09:25:51;;;;;;;18.35;11.65;;;7.60;99.90;;;;;;5003085;28;20030;-69
2022/03/09 09:28:17;;;;;;;19.35;11.50;;;7.70;99.90;;;;;;5020232;28;20425;-68
2022/03/09 09:30:43;;;;;;;21.15;12.45;;;7.70;99.90;;;;;;5019917;28;20087;-70
2022/03/09 09:33:09;;;;;;;20.30;12.05;;;7.90;99.90;;;;;;5020225;28;20026;-70
2022/03/09 09:35:36;;;;;;;21.98;12.15;;;7.90;99.90;;;;;;5020384;28;20033;-68
2022/03/09 09:38:06;;;;;;;21.58;13.48;;;8.00;99.90;;;;;;5019031;28;20034;-68
2022/03/09 09:40:43;;;;;;;25.25;13.10;;;8.10;99.90;;;;;;5019904;28;20029;-69
2022/03/09 09:43:13;;;;;;;23.48;12.77;;;8.30;99.90;;;;;;5018978;28;20045;-69
2022/03/09 09:45:40;;;;;;;22.83;13.00;;;8.40;99.90;;;;;;5019053;28;20361;-68
2022/03/09 09:48:07;;;;;;;23.77;12.57;;;8.40;99.90;;;;;;5020107;28;20310;-68
2022/03/09 09:50:33;;;;;;;23.45;12.02;;;8.60;99.90;;;;;;5019630;28;20030;-68
2022/03/09 09:53:04;;;;;;;21.98;12.57;;;8.80;99.90;;;;;;5018891;28;20059;-69
2022/03/09 09:55:30;;;;;;;28.02;13.63;;;8.80;99.90;;;;;;5019599;28;20034;-68
2022/03/09 09:57:57;;;;;;;24.20;13.40;;;8.70;99.90;;;;;;5018544;28;20040;-70
2022/03/09 10:00:23;;;;;;;24.65;13.63;;;8.80;99.90;;;;;;5019511;28;20034;-68
2022/03/09 10:02:48;;;;;;;23.00;12.88;;;9.00;99.90;;;;;;5018636;28;20329;-68
2022/03/09 10:05:17;;;;;;;25.20;13.48;;;9.10;99.90;;;;;;5018655;28;20034;-68
2022/03/09 10:08:04;;;;;;;23.15;13.05;;;9.30;99.90;;;;;;5019134;28;20390;-67
2022/03/09 10:10:32;;;;;;;24.40;13.75;;;9.50;99.90;;;;;;5002036;28;20171;-70
2022/03/09 10:13:19;;;;;;;24.10;13.32;;;9.60;99.90;;;;;;5018369;28;20088;-69
2022/03/09 10:16:05;;;;;;;26.92;13.57;;;9.60;99.90;;;;;;5018395;28;20041;-69
2022/03/09 10:18:31;;;;;;;23.65;13.93;;;9.90;99.90;;;;;;5019262;28;20064;-66
2022/03/09 10:21:08;;;;;;;24.13;14.25;;;10.10;99.90;;;;;;5018986;28;20030;-67
2022/03/09 10:23:49;;;;;;;23.63;14.02;;;10.20;99.90;;;;;;5019006;28;20038;-68
2022/03/09 10:26:15;;;;;;;25.33;14.68;;;10.40;99.90;;;;;;5018957;28;20076;-68
2022/03/09 10:28:58;;;;;;;24.23;14.07;;;10.80;99.90;;;;;;5018967;28;20309;-68
2022/03/09 10:31:40;;;;;;;26.42;14.52;;;10.90;99.90;;;;;;5001862;28;20038;-68
2022/03/09 10:34:19;;;;;;;23.67;14.32;;;11.30;99.90;;;;;;5018108;28;20032;-68
2022/03/09 10:36:57;;;;;;;25.25;14.57;;;11.60;99.90;;;;;;5018894;28;20101;-68
2022/03/09 10:39:29;;;;;;;26.15;14.50;;;11.70;99.90;;;;;;5001764;28;20026;-67
2022/03/09 10:41:58;;;;;;;22.23;14.45;;;11.60;99.90;;;;;;5017931;28;20361;-68
2022/03/09 10:44:41;;;;;;;25.13;14.27;;;12.00;99.90;;;;;;5018607;28;20048;-68
2022/03/09 10:47:07;;;;;;;27.60;14.35;;;12.20;99.90;;;;;;5001328;28;20029;-68
2022/03/09 10:49:34;;;;;;;25.77;14.73;;;12.70;99.90;;;;;;5018378;28;20029;-69
2022/03/09 10:52:00;;;;;;;24.38;15.00;;;13.70;99.60;;;;;;5001504;28;20053;-69
2022/03/09 10:54:28;;;;;;;25.45;15.35;;;14.50;98.70;;;;;;5017647;28;20394;-69
2022/03/09 10:57:11;;;;;;;25.52;15.00;;;15.60;96.70;;;;;;5001332;28;20026;-67
2022/03/09 10:59:46;;;;;;;23.58;15.15;;;15.90;94.90;;;;;;5018228;28;20173;-67
2022/03/09 11:02:14;;;;;;;25.17;15.40;;;15.90;94.90;;;;;;5018321;28;20041;-67
2022/03/09 11:04:41;;;;;;;28.75;14.95;;;16.30;93.20;;;;;;5017256;28;20038;-67
2022/03/09 11:07:09;;;;;;;24.90;14.73;;;16.10;93.20;;;;;;5018709;28;20046;-67
2022/03/09 11:09:39;;;;;;;25.77;16.25;;;15.80;93.00;;;;;;5017620;28;20262;-67
2022/03/09 11:12:06;;;;;;;26.67;16.08;;;16.60;92.80;;;;;;5017280;28;20038;-68
2022/03/09 11:14:32;;;;;;;24.00;14.27;;;16.70;91.10;;;;;;5000994;28;20030;-67
2022/03/09 11:17:00;;;;;;;24.08;15.70;;;16.90;91.00;;;;;;5017241;28;20021;-68
2022/03/09 11:19:27;;;;;;;26.30;16.77;;;17.50;90.20;;;;;;5017152;28;20129;-68
2022/03/09 11:21:53;;;;;;;24.98;16.15;;;17.90;90.30;;;;;;5018378;28;20287;-69
2022/03/09 11:24:20;;;;;;;26.13;16.10;;;17.60;89.10;;;;;;5017003;28;20025;-69
2022/03/09 11:26:47;;;;;;;26.08;16.23;;;17.30;87.40;;;;;;5017979;28;20042;-68
2022/03/09 11:29:13;;;;;;;26.30;14.88;;;17.70;87.20;;;;;;5017003;28;20022;-66
2022/03/09 11:31:51;;;;;;;25.95;15.57;;;18.30;86.60;;;;;;5016944;28;20107;-68
2022/03/09 11:34:34;;;;;;;25.70;16.25;;;18.90;83.90;;;;;;5017081;28;20306;-67
2022/03/09 11:37:05;;;;;;;25.85;16.48;;;19.30;79.50;;;;;;5017978;28;20037;-66
2022/03/09 11:39:31;;;;;;;31.33;17.60;;;18.40;80.20;;;;;;5017922;28;20021;-68
2022/03/09 11:42:22;;;;;;;28.02;16.55;;;17.50;81.10;;;;;;5017568;28;20068;-67
2022/03/09 11:45:14;;;;;;;28.38;16.15;;;17.10;83.10;;;;;;5000514;28;20100;-68
2022/03/09 11:48:01;;;;;;;31.70;17.48;;;17.10;83.00;;;;;;5016670;28;20045;-67
2022/03/09 11:50:29;;;;;;;26.77;17.27;;;17.10;82.70;;;;;;5017436;28;20041;-68
2022/03/09 11:53:00;;;;;;;27.67;16.98;;;17.40;81.80;;;;;;5017676;28;20109;-67
2022/03/09 11:55:27;;;;;;;30.08;17.42;;;17.80;81.40;;;;;;5016631;28;20122;-68
2022/03/09 11:57:55;;;;;;;31.80;17.67;;;18.00;80.30;;;;;;5017106;28;20028;-68
2022/03/09 12:00:22;;;;;;;27.92;16.98;;;18.00;79.50;;;;;;5016520;28;20049;-67
2022/03/09 12:02:56;;;;;;;28.75;17.92;;;17.80;80.10;;;;;;5017516;28;20057;-67
2022/03/09 12:05:28;;;;;;;29.17;17.20;;;19.20;78.30;;;;;;5016483;28;20298;-68
2022/03/09 12:08:07;;;;;;;29.58;17.92;;;20.50;74.30;;;;;;5017135;28;20070;-69
2022/03/09 12:10:43;;;;;;;32.40;17.52;;;20.50;71.70;;;;;;5016457;28;20405;-68
2022/03/09 12:13:10;;;;;;;30.58;18.15;;;19.40;72.90;;;;;;5016637;28;20417;-68
2022/03/09 12:15:59;;;;;;;33.47;18.80;;;19.30;73.20;;;;;;5016514;28;20382;-67
2022/03/09 12:18:44;;;;;;;31.38;17.80;;;20.10;74.90;;;;;;5016447;28;20036;-68
2022/03/09 12:21:16;;;;;;;28.67;17.42;;;20.60;72.60;;;;;;5015584;28;20034;-68
2022/03/09 12:24:00;;;;;;;29.60;17.38;;;21.30;70.10;;;;;;5017166;28;20080;-68
2022/03/09 12:26:46;;;;;;;27.85;17.40;;;21.60;68.00;;;;;;5016275;28;20412;-67
2022/03/09 12:29:21;;;;;;;30.77;18.42;;;21.00;66.30;;;;;;5017175;28;20042;-68
2022/03/09 12:32:05;;;;;;;29.33;18.50;;;19.80;70.60;;;;;;5017510;28;20041;-68
2022/03/09 12:34:37;;;;;;;31.60;18.30;;;19.20;70.30;;;;;;5016557;28;20026;-67
2022/03/09 12:37:06;;;;;;;31.35;18.73;;;18.80;71.60;;;;;;5017898;28;20042;-68
2022/03/09 12:39:32;;;;;;;29.73;17.15;;;18.50;71.60;;;;;;5017507;28;20037;-69
2022/03/09 12:42:00;;;;;;;33.13;18.38;;;19.60;70.60;;;;;;5000268;28;20053;-71
2022/03/09 12:44:29;;;;;;;33.25;19.05;;;19.80;69.30;;;;;;5016624;28;20417;-69
2022/03/09 12:47:00;;;;;;;35.30;18.23;;;19.30;69.80;;;;;;5016706;28;20049;-69